sensor_id;sensor_type;location;lat;lon;timestamp;pressure;altitude;pressure_sealevel;temperature;humidity
64675;BME280;51090;51.512;11.332;2023-02-04T00:01:36;100155.34;;;6.39;100.00
64675;BME280;51090;51.512;11.332;2023-02-04T00:04:01;100152.16;;;6.16;100.00
64675;BME280;51090;51.512;11.332;2023-02-04T00:06:28;100130.97;;;6.27;100.00
64675;BME280;51090;51.512;11.332;2023-02-04T00:08:53;100172.97;;;6.29;100.00
64675;BME280;51090;51.512;11.332;2023-02-04T00:11:19;100180.03;;;6.19;100.00
64675;BME280;51090;51.512;11.332;2023-02-04T00:13:45;100159.38;;;6.33;100.00
64675;BME280;51090;51.512;11.332;2023-02-04T00:16:11;100159.94;;;6.37;100.00
64675;BME280;51090;51.512;11.332;2023-02-04T00:18:36;100188.63;;;6.30;100.00
64675;BME280;51090;51.512;11.332;2023-02-04T00:21:02;100127.50;;;5.98;100.00
64675;BME280;51090;51.512;11.332;2023-02-04T00:23:28;100184.59;;;5.97;100.00
64675;BME280;51090;51.512;11.332;2023-02-04T00:25:54;100184.91;;;6.04;100.00
64675;BME280;51090;51.512;11.332;2023-02-04T00:28:19;100196.94;;;6.06;100.00
64675;BME280;51090;51.512;11.332;2023-02-04T00:30:45;100225.22;;;6.24;100.00
64675;BME280;51090;51.512;11.332;2023-02-04T00:33:12;100243.94;;;6.21;100.00
64675;BME280;51090;51.512;11.332;2023-02-04T00:35:38;100275.69;;;6.19;100.00
64675;BME280;51090;51.512;11.332;2023-02-04T00:38:05;100267.38;;;5.43;100.00
64675;BME280;51090;51.512;11.332;2023-02-04T00:40:31;100295.56;;;5.62;100.00
64675;BME280;51090;51.512;11.332;2023-02-04T00:42:57;100285.75;;;5.12;100.00
64675;BME280;51090;51.512;11.332;2023-02-04T00:45:23;100314.34;;;5.27;100.00
64675;BME280;51090;51.512;11.332;2023-02-04T00:47:50;100322.56;;;5.12;100.00
64675;BME280;51090;51.512;11.332;2023-02-04T00:50:16;100325.75;;;5.16;100.00
64675;BME280;51090;51.512;11.332;2023-02-04T00:52:42;100341.25;;;4.98;100.00
64675;BME280;51090;51.512;11.332;2023-02-04T00:55:09;100348.31;;;4.97;100.00
64675;BME280;51090;51.512;11.332;2023-02-04T00:57:38;100346.56;;;4.87;100.00
64675;BME280;51090;51.512;11.332;2023-02-04T01:00:05;100350.78;;;5.10;100.00
64675;BME280;51090;51.512;11.332;2023-02-04T01:02:31;100359.50;;;4.78;100.00
64675;BME280;51090;51.512;11.332;2023-02-04T01:04:57;100367.50;;;4.88;100.00
64675;BME280;51090;51.512;11.332;2023-02-04T01:07:22;100371.88;;;4.88;100.00
64675;BME280;51090;51.512;11.332;2023-02-04T01:09:48;100380.03;;;4.85;100.00
64675;BME280;51090;51.512;11.332;2023-02-04T01:12:14;100395.44;;;4.89;100.00
64675;BME280;51090;51.512;11.332;2023-02-04T01:14:39;100370.03;;;4.78;100.00
64675;BME280;51090;51.512;11.332;2023-02-04T01:17:05;100389.34;;;4.89;100.00
64675;BME280;51090;51.512;11.332;2023-02-04T01:19:31;100385.66;;;4.80;100.00
64675;BME280;51090;51.512;11.332;2023-02-04T01:21:57;100423.47;;;5.32;100.00
64675;BME280;51090;51.512;11.332;2023-02-04T01:24:22;100397.94;;;4.91;100.00
64675;BME280;51090;51.512;11.332;2023-02-04T01:26:48;100428.88;;;4.98;100.00
64675;BME280;51090;51.512;11.332;2023-02-04T01:29:14;100430.31;;;4.91;100.00
64675;BME280;51090;51.512;11.332;2023-02-04T01:31:39;100433.06;;;4.90;100.00
64675;BME280;51090;51.512;11.332;2023-02-04T01:34:05;100421.63;;;4.79;100.00
64675;BME280;51090;51.512;11.332;2023-02-04T01:36:31;100427.84;;;4.78;100.00
64675;BME280;51090;51.512;11.332;2023-02-04T01:38:57;100435.72;;;4.67;100.00
64675;BME280;51090;51.512;11.332;2023-02-04T01:41:25;100439.56;;;4.63;100.00
64675;BME280;51090;51.512;11.332;2023-02-04T01:43:51;100456.06;;;4.54;100.00
64675;BME280;51090;51.512;11.332;2023-02-04T01:46:18;100466.91;;;4.72;100.00
64675;BME280;51090;51.512;11.332;2023-02-04T01:48:44;100473.38;;;4.68;100.00
64675;BME280;51090;51.512;11.332;2023-02-04T01:51:13;100477.78;;;4.67;100.00
64675;BME280;51090;51.512;11.332;2023-02-04T01:53:40;100476.34;;;4.52;100.00
64675;BME280;51090;51.512;11.332;2023-02-04T01:56:22;100470.84;;;4.21;100.00
64675;BME280;51090;51.512;11.332;2023-02-04T01:58:48;100500.50;;;4.34;100.00
64675;BME280;51090;51.512;11.332;2023-02-04T02:01:38;100527.69;;;4.67;100.00
64675;BME280;51090;51.512;11.332;2023-02-04T02:04:07;100543.44;;;4.33;100.00
64675;BME280;51090;51.512;11.332;2023-02-04T02:06:35;100529.59;;;4.54;100.00
64675;BME280;51090;51.512;11.332;2023-02-04T02:09:02;100537.72;;;4.62;100.00
64675;BME280;51090;51.512;11.332;2023-02-04T02:11:28;100548.72;;;4.67;100.00
64675;BME280;51090;51.512;11.332;2023-02-04T02:13:55;100548.00;;;4.54;100.00
64675;BME280;51090;51.512;11.332;2023-02-04T02:16:21;100566.38;;;4.54;100.00
64675;BME280;51090;51.512;11.332;2023-02-04T02:18:47;100564.34;;;4.35;100.00
64675;BME280;51090;51.512;11.332;2023-02-04T02:21:15;100559.69;;;4.27;100.00
64675;BME280;51090;51.512;11.332;2023-02-04T02:23:53;100572.56;;;4.19;100.00
64675;BME280;51090;51.512;11.332;2023-02-04T02:26:22;100576.03;;;4.31;100.00
64675;BME280;51090;51.512;11.332;2023-02-04T02:28:48;100588.22;;;4.32;100.00
64675;BME280;51090;51.512;11.332;2023-02-04T02:31:18;100582.59;;;4.25;100.00
64675;BME280;51090;51.512;11.332;2023-02-04T02:33:45;100595.69;;;4.14;100.00
64675;BME280;51090;51.512;11.332;2023-02-04T02:36:11;100606.47;;;3.98;100.00
64675;BME280;51090;51.512;11.332;2023-02-04T02:38:37;100607.09;;;4.02;100.00
64675;BME280;51090;51.512;11.332;2023-02-04T02:41:04;100604.91;;;3.96;100.00
64675;BME280;51090;51.512;11.332;2023-02-04T02:43:34;100610.16;;;3.96;100.00
64675;BME280;51090;51.512;11.332;2023-02-04T02:46:01;100613.88;;;3.93;100.00
64675;BME280;51090;51.512;11.332;2023-02-04T02:48:27;100608.72;;;3.91;100.00
64675;BME280;51090;51.512;11.332;2023-02-04T02:50:52;100619.41;;;4.01;100.00
64675;BME280;51090;51.512;11.332;2023-02-04T02:53:19;100622.94;;;4.00;100.00
64675;BME280;51090;51.512;11.332;2023-02-04T02:55:45;100639.34;;;4.15;100.00
64675;BME280;51090;51.512;11.332;2023-02-04T02:58:28;100641.75;;;4.18;100.00
64675;BME280;51090;51.512;11.332;2023-02-04T03:00:54;100640.53;;;4.11;100.00
64675;BME280;51090;51.512;11.332;2023-02-04T03:03:24;100651.50;;;4.05;100.00
64675;BME280;51090;51.512;11.332;2023-02-04T03:05:56;100644.16;;;3.86;100.00
64675;BME280;51090;51.512;11.332;2023-02-04T03:08:24;100632.19;;;3.82;100.00
64675;BME280;51090;51.512;11.332;2023-02-04T03:10:50;100641.63;;;3.84;100.00
64675;BME280;51090;51.512;11.332;2023-02-04T03:13:16;100652.84;;;3.86;100.00
64675;BME280;51090;51.512;11.332;2023-02-04T03:15:44;100646.81;;;3.73;100.00
64675;BME280;51090;51.512;11.332;2023-02-04T03:18:13;100661.50;;;4.00;100.00
64675;BME280;51090;51.512;11.332;2023-02-04T03:20:41;100677.25;;;4.00;100.00
64675;BME280;51090;51.512;11.332;2023-02-04T03:23:07;100678.19;;;3.99;100.00
64675;BME280;51090;51.512;11.332;2023-02-04T03:25:33;100686.28;;;3.96;100.00
64675;BME280;51090;51.512;11.332;2023-02-04T03:27:59;100685.66;;;3.68;100.00
64675;BME280;51090;51.512;11.332;2023-02-04T03:30:26;100699.94;;;3.64;100.00
64675;BME280;51090;51.512;11.332;2023-02-04T03:32:52;100698.09;;;3.77;100.00
64675;BME280;51090;51.512;11.332;2023-02-04T03:35:18;100715.03;;;3.97;100.00
64675;BME280;51090;51.512;11.332;2023-02-04T03:37:44;100724.53;;;4.11;100.00
64675;BME280;51090;51.512;11.332;2023-02-04T03:40:12;100729.44;;;4.15;100.00
64675;BME280;51090;51.512;11.332;2023-02-04T03:42:38;100735.84;;;4.24;100.00
64675;BME280;51090;51.512;11.332;2023-02-04T03:45:04;100745.16;;;4.28;100.00
64675;BME280;51090;51.512;11.332;2023-02-04T03:47:30;100739.69;;;4.07;100.00
64675;BME280;51090;51.512;11.332;2023-02-04T03:49:57;100754.81;;;4.04;100.00
64675;BME280;51090;51.512;11.332;2023-02-04T03:52:23;100766.50;;;4.24;100.00
64675;BME280;51090;51.512;11.332;2023-02-04T03:54:49;100781.81;;;4.30;100.00
64675;BME280;51090;51.512;11.332;2023-02-04T03:57:15;100770.34;;;4.07;100.00
64675;BME280;51090;51.512;11.332;2023-02-04T03:59:41;100787.66;;;4.33;100.00
64675;BME280;51090;51.512;11.332;2023-02-04T04:02:07;100791.34;;;4.31;100.00
64675;BME280;51090;51.512;11.332;2023-02-04T04:04:33;100803.94;;;4.39;100.00
64675;BME280;51090;51.512;11.332;2023-02-04T04:07:00;100807.66;;;4.23;100.00
64675;BME280;51090;51.512;11.332;2023-02-04T04:09:26;100812.22;;;4.45;100.00
64675;BME280;51090;51.512;11.332;2023-02-04T04:11:52;100818.13;;;4.36;100.00
64675;BME280;51090;51.512;11.332;2023-02-04T04:14:18;100819.69;;;4.39;100.00
64675;BME280;51090;51.512;11.332;2023-02-04T04:16:44;100832.69;;;4.53;100.00
64675;BME280;51090;51.512;11.332;2023-02-04T04:19:10;100840.06;;;4.48;100.00
64675;BME280;51090;51.512;11.332;2023-02-04T04:21:36;100840.06;;;4.48;100.00
64675;BME280;51090;51.512;11.332;2023-02-04T04:24:02;100844.66;;;4.44;100.00
64675;BME280;51090;51.512;11.332;2023-02-04T04:26:28;100852.00;;;4.52;100.00
64675;BME280;51090;51.512;11.332;2023-02-04T04:28:54;100849.38;;;4.52;100.00
64675;BME280;51090;51.512;11.332;2023-02-04T04:31:20;100851.06;;;4.53;100.00
64675;BME280;51090;51.512;11.332;2023-02-04T04:33:46;100858.53;;;4.46;100.00
64675;BME280;51090;51.512;11.332;2023-02-04T04:36:12;100861.16;;;4.46;100.00
64675;BME280;51090;51.512;11.332;2023-02-04T04:38:39;100855.53;;;4.40;100.00
64675;BME280;51090;51.512;11.332;2023-02-04T04:41:05;100850.47;;;4.36;100.00
64675;BME280;51090;51.512;11.332;2023-02-04T04:43:31;100863.75;;;4.35;100.00
64675;BME280;51090;51.512;11.332;2023-02-04T04:45:57;100850.41;;;4.25;100.00
64675;BME280;51090;51.512;11.332;2023-02-04T04:48:23;100875.31;;;4.32;100.00
64675;BME280;51090;51.512;11.332;2023-02-04T04:50:50;100890.84;;;4.35;100.00
64675;BME280;51090;51.512;11.332;2023-02-04T04:53:16;100900.50;;;4.35;100.00
64675;BME280;51090;51.512;11.332;2023-02-04T04:55:42;100902.50;;;4.31;100.00
64675;BME280;51090;51.512;11.332;2023-02-04T04:58:08;100916.75;;;4.53;100.00
64675;BME280;51090;51.512;11.332;2023-02-04T05:00:35;100919.38;;;4.53;100.00
64675;BME280;51090;51.512;11.332;2023-02-04T05:03:01;100922.59;;;4.56;100.00
64675;BME280;51090;51.512;11.332;2023-02-04T05:05:27;100924.63;;;4.53;100.00
64675;BME280;51090;51.512;11.332;2023-02-04T05:07:53;100918.72;;;4.49;100.00
64675;BME280;51090;51.512;11.332;2023-02-04T05:10:19;100930.50;;;4.56;100.00
64675;BME280;51090;51.512;11.332;2023-02-04T05:12:45;100929.19;;;4.62;100.00
64675;BME280;51090;51.512;11.332;2023-02-04T05:15:11;100930.16;;;4.61;100.00
64675;BME280;51090;51.512;11.332;2023-02-04T05:17:37;100928.81;;;4.55;100.00
64675;BME280;51090;51.512;11.332;2023-02-04T05:20:04;100934.91;;;4.56;100.00
64675;BME280;51090;51.512;11.332;2023-02-04T05:22:30;100937.75;;;4.53;100.00
64675;BME280;51090;51.512;11.332;2023-02-04T05:24:56;100949.72;;;4.57;100.00
64675;BME280;51090;51.512;11.332;2023-02-04T05:27:22;100949.28;;;4.63;100.00
64675;BME280;51090;51.512;11.332;2023-02-04T05:29:48;100950.72;;;4.67;100.00
64675;BME280;51090;51.512;11.332;2023-02-04T05:32:14;100946.13;;;4.71;100.00
64675;BME280;51090;51.512;11.332;2023-02-04T05:34:40;100954.59;;;4.74;100.00
64675;BME280;51090;51.512;11.332;2023-02-04T05:37:06;100959.25;;;4.71;100.00
64675;BME280;51090;51.512;11.332;2023-02-04T05:39:32;100978.69;;;5.05;100.00
64675;BME280;51090;51.512;11.332;2023-02-04T05:41:58;100975.81;;;5.08;100.00
64675;BME280;51090;51.512;11.332;2023-02-04T05:44:24;100973.88;;;4.99;100.00
64675;BME280;51090;51.512;11.332;2023-02-04T05:46:50;101002.03;;;5.10;100.00
64675;BME280;51090;51.512;11.332;2023-02-04T05:49:16;100986.44;;;4.83;100.00
64675;BME280;51090;51.512;11.332;2023-02-04T05:51:42;100983.56;;;4.49;100.00
64675;BME280;51090;51.512;11.332;2023-02-04T05:54:08;100989.66;;;4.49;100.00
64675;BME280;51090;51.512;11.332;2023-02-04T05:56:34;100993.88;;;4.39;100.00
64675;BME280;51090;51.512;11.332;2023-02-04T05:59:00;100996.63;;;4.25;100.00
64675;BME280;51090;51.512;11.332;2023-02-04T06:01:26;101003.56;;;4.13;100.00
64675;BME280;51090;51.512;11.332;2023-02-04T06:03:52;101006.63;;;4.07;100.00
64675;BME280;51090;51.512;11.332;2023-02-04T06:06:18;101008.50;;;4.05;100.00
64675;BME280;51090;51.512;11.332;2023-02-04T06:08:44;101001.44;;;3.92;100.00
64675;BME280;51090;51.512;11.332;2023-02-04T06:11:10;101006.59;;;3.94;100.00
64675;BME280;51090;51.512;11.332;2023-02-04T06:13:36;101006.16;;;3.87;100.00
64675;BME280;51090;51.512;11.332;2023-02-04T06:16:02;100998.50;;;3.84;100.00
64675;BME280;51090;51.512;11.332;2023-02-04T06:18:28;100996.94;;;3.82;100.00
64675;BME280;51090;51.512;11.332;2023-02-04T06:20:54;100985.56;;;3.56;100.00
64675;BME280;51090;51.512;11.332;2023-02-04T06:23:20;101001.22;;;3.70;100.00
64675;BME280;51090;51.512;11.332;2023-02-04T06:25:46;100992.59;;;3.55;100.00
64675;BME280;51090;51.512;11.332;2023-02-04T06:28:14;101002.88;;;3.58;100.00
64675;BME280;51090;51.512;11.332;2023-02-04T06:30:39;101004.88;;;3.27;100.00
64675;BME280;51090;51.512;11.332;2023-02-04T06:33:05;101015.66;;;3.23;100.00
64675;BME280;51090;51.512;11.332;2023-02-04T06:35:31;101008.41;;;3.14;100.00
64675;BME280;51090;51.512;11.332;2023-02-04T06:37:57;101021.50;;;3.14;100.00
64675;BME280;51090;51.512;11.332;2023-02-04T06:40:23;101026.00;;;3.12;100.00
64675;BME280;51090;51.512;11.332;2023-02-04T06:42:49;101037.31;;;3.12;100.00
64675;BME280;51090;51.512;11.332;2023-02-04T06:45:15;101048.41;;;3.30;100.00
64675;BME280;51090;51.512;11.332;2023-02-04T06:47:41;101048.09;;;3.08;100.00
64675;BME280;51090;51.512;11.332;2023-02-04T06:50:07;101051.72;;;3.19;100.00
64675;BME280;51090;51.512;11.332;2023-02-04T06:52:34;101064.00;;;3.19;100.00
64675;BME280;51090;51.512;11.332;2023-02-04T06:55:00;101072.59;;;3.21;100.00
64675;BME280;51090;51.512;11.332;2023-02-04T06:57:26;101078.56;;;3.23;100.00
64675;BME280;51090;51.512;11.332;2023-02-04T06:59:52;101090.84;;;3.22;100.00
64675;BME280;51090;51.512;11.332;2023-02-04T07:02:18;101097.88;;;3.22;100.00
64675;BME280;51090;51.512;11.332;2023-02-04T07:04:44;101094.44;;;3.21;100.00
64675;BME280;51090;51.512;11.332;2023-02-04T07:07:11;101103.97;;;3.22;100.00
64675;BME280;51090;51.512;11.332;2023-02-04T07:09:37;101118.00;;;3.21;100.00
64675;BME280;51090;51.512;11.332;2023-02-04T07:12:05;101109.13;;;3.24;100.00
64675;BME280;51090;51.512;11.332;2023-02-04T07:14:31;101122.59;;;3.32;100.00
64675;BME280;51090;51.512;11.332;2023-02-04T07:16:57;101128.44;;;3.50;100.00
64675;BME280;51090;51.512;11.332;2023-02-04T07:19:23;101119.97;;;3.59;100.00
64675;BME280;51090;51.512;11.332;2023-02-04T07:21:50;101125.38;;;3.70;100.00
64675;BME280;51090;51.512;11.332;2023-02-04T07:24:19;101135.97;;;3.69;100.00
64675;BME280;51090;51.512;11.332;2023-02-04T07:26:45;101136.66;;;3.85;100.00
64675;BME280;51090;51.512;11.332;2023-02-04T07:29:11;101142.78;;;3.99;100.00
64675;BME280;51090;51.512;11.332;2023-02-04T07:31:37;101139.66;;;4.06;100.00
64675;BME280;51090;51.512;11.332;2023-02-04T07:34:03;101143.38;;;4.17;100.00
64675;BME280;51090;51.512;11.332;2023-02-04T07:36:29;101133.50;;;4.20;100.00
64675;BME280;51090;51.512;11.332;2023-02-04T07:38:55;101140.94;;;4.26;100.00
64675;BME280;51090;51.512;11.332;2023-02-04T07:41:21;101146.66;;;4.46;100.00
64675;BME280;51090;51.512;11.332;2023-02-04T07:43:47;101145.91;;;4.31;100.00
64675;BME280;51090;51.512;11.332;2023-02-04T07:46:13;101162.91;;;4.25;100.00
64675;BME280;51090;51.512;11.332;2023-02-04T07:48:39;101168.59;;;4.19;100.00
64675;BME280;51090;51.512;11.332;2023-02-04T07:51:05;101174.75;;;4.18;100.00
64675;BME280;51090;51.512;11.332;2023-02-04T07:53:31;101171.91;;;4.21;100.00
64675;BME280;51090;51.512;11.332;2023-02-04T07:55:57;101172.78;;;4.22;100.00
64675;BME280;51090;51.512;11.332;2023-02-04T07:58:23;101179.53;;;4.39;100.00
64675;BME280;51090;51.512;11.332;2023-02-04T08:00:49;101188.25;;;4.39;100.00
64675;BME280;51090;51.512;11.332;2023-02-04T08:03:15;101178.75;;;4.24;100.00
64675;BME280;51090;51.512;11.332;2023-02-04T08:05:41;101174.13;;;4.14;100.00
64675;BME280;51090;51.512;11.332;2023-02-04T08:08:07;101183.13;;;4.10;100.00
64675;BME280;51090;51.512;11.332;2023-02-04T08:10:33;101186.16;;;4.04;100.00
64675;BME280;51090;51.512;11.332;2023-02-04T08:12:59;101206.53;;;4.41;100.00
64675;BME280;51090;51.512;11.332;2023-02-04T08:15:25;101223.16;;;4.54;100.00
64675;BME280;51090;51.512;11.332;2023-02-04T08:17:51;101209.56;;;4.22;100.00
64675;BME280;51090;51.512;11.332;2023-02-04T08:20:17;101210.38;;;4.22;100.00
64675;BME280;51090;51.512;11.332;2023-02-04T08:22:44;101218.69;;;4.29;100.00
64675;BME280;51090;51.512;11.332;2023-02-04T08:25:11;101219.47;;;4.44;100.00
64675;BME280;51090;51.512;11.332;2023-02-04T08:27:37;101224.53;;;4.59;100.00
64675;BME280;51090;51.512;11.332;2023-02-04T08:30:04;101239.97;;;5.04;100.00
64675;BME280;51090;51.512;11.332;2023-02-04T08:32:30;101229.22;;;4.94;100.00
64675;BME280;51090;51.512;11.332;2023-02-04T08:34:57;101234.16;;;5.12;100.00
64675;BME280;51090;51.512;11.332;2023-02-04T08:37:23;101259.00;;;5.83;100.00
64675;BME280;51090;51.512;11.332;2023-02-04T08:39:49;101258.66;;;5.87;100.00
64675;BME280;51090;51.512;11.332;2023-02-04T08:42:15;101264.75;;;6.01;100.00
64675;BME280;51090;51.512;11.332;2023-02-04T08:44:41;101275.88;;;6.17;100.00
64675;BME280;51090;51.512;11.332;2023-02-04T08:47:08;101265.63;;;6.25;100.00
64675;BME280;51090;51.512;11.332;2023-02-04T08:49:35;101277.78;;;6.39;100.00
64675;BME280;51090;51.512;11.332;2023-02-04T08:52:01;101269.72;;;6.53;100.00
64675;BME280;51090;51.512;11.332;2023-02-04T08:54:28;101281.25;;;6.64;100.00
64675;BME280;51090;51.512;11.332;2023-02-04T08:56:54;101278.97;;;6.70;100.00
64675;BME280;51090;51.512;11.332;2023-02-04T08:59:20;101284.53;;;6.79;100.00
64675;BME280;51090;51.512;11.332;2023-02-04T09:01:49;101287.09;;;6.91;100.00
64675;BME280;51090;51.512;11.332;2023-02-04T09:04:22;101297.66;;;7.03;100.00
64675;BME280;51090;51.512;11.332;2023-02-04T09:06:49;101300.19;;;7.04;100.00
64675;BME280;51090;51.512;11.332;2023-02-04T09:09:16;101308.53;;;7.22;100.00
64675;BME280;51090;51.512;11.332;2023-02-04T09:11:43;101299.97;;;7.18;100.00
64675;BME280;51090;51.512;11.332;2023-02-04T09:14:09;101305.38;;;7.17;100.00
64675;BME280;51090;51.512;11.332;2023-02-04T09:16:35;101305.97;;;7.20;100.00
64675;BME280;51090;51.512;11.332;2023-02-04T09:19:01;101308.53;;;7.22;100.00
64675;BME280;51090;51.512;11.332;2023-02-04T09:21:28;101312.34;;;7.18;100.00
64675;BME280;51090;51.512;11.332;2023-02-04T09:23:54;101311.25;;;7.20;100.00
64675;BME280;51090;51.512;11.332;2023-02-04T09:26:20;101313.41;;;7.15;100.00
64675;BME280;51090;51.512;11.332;2023-02-04T09:28:46;101310.28;;;7.10;100.00
64675;BME280;51090;51.512;11.332;2023-02-04T09:31:15;101318.44;;;7.07;100.00
64675;BME280;51090;51.512;11.332;2023-02-04T09:33:41;101310.97;;;7.01;100.00
64675;BME280;51090;51.512;11.332;2023-02-04T09:36:07;101318.28;;;6.97;100.00
64675;BME280;51090;51.512;11.332;2023-02-04T09:38:33;101320.19;;;6.95;100.00
64675;BME280;51090;51.512;11.332;2023-02-04T09:41:06;101318.38;;;6.96;100.00
64675;BME280;51090;51.512;11.332;2023-02-04T09:43:40;101311.19;;;6.87;100.00
64675;BME280;51090;51.512;11.332;2023-02-04T09:46:24;101322.25;;;7.03;100.00
64675;BME280;51090;51.512;11.332;2023-02-04T09:48:53;101333.19;;;7.10;100.00
64675;BME280;51090;51.512;11.332;2023-02-04T09:51:24;101329.56;;;7.00;100.00
64675;BME280;51090;51.512;11.332;2023-02-04T09:53:52;101337.63;;;7.09;100.00
64675;BME280;51090;51.512;11.332;2023-02-04T09:56:18;101336.09;;;7.29;100.00
64675;BME280;51090;51.512;11.332;2023-02-04T09:58:44;101314.63;;;7.34;100.00
64675;BME280;51090;51.512;11.332;2023-02-04T10:01:15;101334.81;;;7.57;100.00
64675;BME280;51090;51.512;11.332;2023-02-04T10:03:43;101334.59;;;7.60;100.00
64675;BME280;51090;51.512;11.332;2023-02-04T10:06:18;101357.88;;;7.89;100.00
64675;BME280;51090;51.512;11.332;2023-02-04T10:08:46;101339.38;;;7.67;100.00
64675;BME280;51090;51.512;11.332;2023-02-04T10:11:13;101349.09;;;7.89;100.00
64675;BME280;51090;51.512;11.332;2023-02-04T10:13:44;101344.63;;;8.12;100.00
64675;BME280;51090;51.512;11.332;2023-02-04T10:16:29;101345.44;;;8.35;100.00
64675;BME280;51090;51.512;11.332;2023-02-04T10:19:02;101354.09;;;8.37;100.00
64675;BME280;51090;51.512;11.332;2023-02-04T10:21:34;101350.59;;;8.47;95.24
64675;BME280;51090;51.512;11.332;2023-02-04T10:24:08;101346.41;;;8.45;100.00
64675;BME280;51090;51.512;11.332;2023-02-04T10:26:35;101359.66;;;8.22;81.95
64675;BME280;51090;51.512;11.332;2023-02-04T10:29:11;101353.09;;;7.94;88.15
64675;BME280;51090;51.512;11.332;2023-02-04T10:31:40;101348.41;;;7.87;100.00
64675;BME280;51090;51.512;11.332;2023-02-04T10:34:10;101353.19;;;7.93;92.77
64675;BME280;51090;51.512;11.332;2023-02-04T10:36:38;101351.28;;;7.95;100.00
64675;BME280;51090;51.512;11.332;2023-02-04T10:41:58;101347.19;;;7.91;86.35
64675;BME280;51090;51.512;11.332;2023-02-04T10:44:29;101359.91;;;7.85;99.00
64675;BME280;51090;51.512;11.332;2023-02-04T10:47:17;101339.97;;;7.70;93.74
64675;BME280;51090;51.512;11.332;2023-02-04T10:49:59;101355.59;;;7.51;83.46
64675;BME280;51090;51.512;11.332;2023-02-04T10:52:39;101366.19;;;7.27;82.44
64675;BME280;51090;51.512;11.332;2023-02-04T10:55:12;101375.28;;;7.11;89.03
64675;BME280;51090;51.512;11.332;2023-02-04T10:57:39;101359.97;;;6.92;97.20
64675;BME280;51090;51.512;11.332;2023-02-04T11:00:22;101367.16;;;6.90;100.00
64675;BME280;51090;51.512;11.332;2023-02-04T11:03:05;101370.47;;;7.05;93.10
64675;BME280;51090;51.512;11.332;2023-02-04T11:05:34;101359.59;;;7.21;100.00
64675;BME280;51090;51.512;11.332;2023-02-04T11:08:01;101366.25;;;7.49;100.00
64675;BME280;51090;51.512;11.332;2023-02-04T11:10:31;101365.94;;;7.76;100.00
64675;BME280;51090;51.512;11.332;2023-02-04T11:15:44;101375.81;;;8.63;100.00
64675;BME280;51090;51.512;11.332;2023-02-04T11:20:56;101393.75;;;8.37;71.33
64675;BME280;51090;51.512;11.332;2023-02-04T11:31:25;101386.81;;;7.79;100.00
64675;BME280;51090;51.512;11.332;2023-02-04T11:39:36;101397.03;;;8.18;100.00
64675;BME280;51090;51.512;11.332;2023-02-04T11:42:04;101404.34;;;8.48;100.00
64675;BME280;51090;51.512;11.332;2023-02-04T11:44:31;101378.44;;;8.63;100.00
64675;BME280;51090;51.512;11.332;2023-02-04T11:46:58;101392.22;;;8.89;98.91
64675;BME280;51090;51.512;11.332;2023-02-04T11:49:26;101394.06;;;9.09;100.00
64675;BME280;51090;51.512;11.332;2023-02-04T11:52:06;101396.75;;;9.19;91.30
64675;BME280;51090;51.512;11.332;2023-02-04T11:54:36;101402.84;;;9.31;94.00
64675;BME280;51090;51.512;11.332;2023-02-04T11:57:02;101388.50;;;8.91;75.57
64675;BME280;51090;51.512;11.332;2023-02-04T11:59:28;101384.84;;;8.60;77.28
64675;BME280;51090;51.512;11.332;2023-02-04T12:02:12;101395.81;;;8.33;70.86
64675;BME280;51090;51.512;11.332;2023-02-04T12:04:57;101390.06;;;8.05;82.67
64675;BME280;51090;51.512;11.332;2023-02-04T12:07:33;101393.63;;;7.59;76.66
64675;BME280;51090;51.512;11.332;2023-02-04T12:12:47;101395.63;;;7.33;87.23
64675;BME280;51090;51.512;11.332;2023-02-04T12:15:21;101394.63;;;7.23;70.54
64675;BME280;51090;51.512;11.332;2023-02-04T12:18:05;101407.28;;;7.07;83.05
64675;BME280;51090;51.512;11.332;2023-02-04T12:20:37;101396.41;;;6.87;83.69
64675;BME280;51090;51.512;11.332;2023-02-04T12:23:04;101406.69;;;6.79;84.94
64675;BME280;51090;51.512;11.332;2023-02-04T12:25:30;101390.97;;;6.78;84.14
64675;BME280;51090;51.512;11.332;2023-02-04T12:27:56;101398.47;;;6.95;88.33
64675;BME280;51090;51.512;11.332;2023-02-04T12:30:23;101402.22;;;7.04;83.76
64675;BME280;51090;51.512;11.332;2023-02-04T12:32:49;101402.28;;;7.15;88.58
64675;BME280;51090;51.512;11.332;2023-02-04T12:35:16;101394.06;;;7.31;88.50
64675;BME280;51090;51.512;11.332;2023-02-04T12:37:42;101404.31;;;7.58;92.50
64675;BME280;51090;51.512;11.332;2023-02-04T12:40:16;101401.94;;;7.89;93.91
64675;BME280;51090;51.512;11.332;2023-02-04T12:42:43;101399.91;;;8.15;80.88
64675;BME280;51090;51.512;11.332;2023-02-04T12:45:11;101402.19;;;8.42;89.22
64675;BME280;51090;51.512;11.332;2023-02-04T12:47:36;101399.00;;;8.70;88.86
64675;BME280;51090;51.512;11.332;2023-02-04T12:50:03;101405.03;;;9.05;84.12
64675;BME280;51090;51.512;11.332;2023-02-04T12:52:29;101399.28;;;9.21;82.20
64675;BME280;51090;51.512;11.332;2023-02-04T12:54:55;101406.78;;;9.36;80.68
64675;BME280;51090;51.512;11.332;2023-02-04T12:57:20;101405.75;;;9.49;82.43
64675;BME280;51090;51.512;11.332;2023-02-04T12:59:46;101397.16;;;9.56;68.05
64675;BME280;51090;51.512;11.332;2023-02-04T13:02:14;101408.06;;;9.63;78.38
64675;BME280;51090;51.512;11.332;2023-02-04T13:04:40;101397.88;;;9.58;68.65
64675;BME280;51090;51.512;11.332;2023-02-04T13:07:08;101399.09;;;9.54;73.42